< < Back
Terminal Aerodrome Forecast


Current Version              Previous Versions:   1  2  3  4  5  6  7  8  9  

Terminal Aerodrome Forecast

295
FTUS42 KCHS 221100
TAFSAV
TAF
KSAV 221127Z 2212/2312 36009G16KT P6SM SKC
     FM222200 34004KT P6SM SKC=

Latest METAR

397
SAUS80 KWBC 231500 RRA
MTRSAV
METAR KSAV 231453Z 03006KT 10SM CLR 17/06 A3012 RMK AO2 SLP198 T01720061
50008


USA.gov is the U.S. government's official web portal to all federal, state and local government web resources and services.